Time;durP1;ratioP1;P1;durP2;ratioP2;P2;SDS_P1;SDS_P2;PMS_P1;PMS_P2;Temp;Humidity;BMP_temperature;BMP_pressure;BME280_temperature;BME280_humidity;BME280_pressure;Samples;Min_cycle;Max_cycle;Signal;HPM_P1;HPM_P2
2023/03/24 00:01:05;;;;;;;9.20;2.90;;;14.20;99.90;;;;;;5057833;28;20965;-59
2023/03/24 00:03:32;;;;;;;8.23;3.50;;;14.30;1.00;;;;;;5057716;28;20477;-59
2023/03/24 00:06:03;;;;;;;8.57;3.40;;;14.40;1.00;;;;;;5056812;28;20416;-60
2023/03/24 00:08:34;;;;;;;7.37;3.10;;;14.40;1.00;;;;;;5056910;28;20395;-60
2023/03/24 00:11:10;;;;;;;7.57;2.90;;;14.40;1.00;;;;;;5057608;28;20408;-59
2023/03/24 00:13:37;;;;;;;7.72;3.08;;;14.30;1.00;;;;;;5057719;28;20936;-60
2023/03/24 00:16:12;;;;;;;7.65;2.88;;;14.30;1.00;;;;;;5061077;28;20892;-60
2023/03/24 00:18:38;;;;;;;7.72;3.00;;;14.30;1.00;;;;;;5060756;28;20405;-59
2023/03/24 00:21:05;;;;;;;6.75;2.53;;;14.20;23.20;;;;;;5063212;28;20541;-60
2023/03/24 00:23:32;;;;;;;7.18;3.10;;;14.20;1.00;;;;;;5062477;28;20395;-59
2023/03/24 00:26:15;;;;;;;7.57;2.95;;;14.10;99.90;;;;;;5061049;28;20471;-60
2023/03/24 00:28:47;;;;;;;7.32;2.50;;;14.10;36.90;;;;;;5058204;28;20451;-59
2023/03/24 00:31:14;;;;;;;6.65;2.45;;;14.10;1.00;;;;;;5061331;28;20403;-59
2023/03/24 00:33:41;;;;;;;7.70;2.80;;;14.10;1.00;;;;;;5061183;28;20387;-59
2023/03/24 00:36:10;;;;;;;7.00;2.55;;;14.20;1.00;;;;;;5062669;28;20485;-60
2023/03/24 00:38:37;;;;;;;8.05;2.60;;;14.20;1.00;;;;;;5060375;28;20424;-59
2023/03/24 00:41:05;;;;;;;6.70;2.50;;;14.30;1.00;;;;;;5061934;28;20404;-59
2023/03/24 00:43:31;;;;;;;7.10;2.63;;;14.40;1.00;;;;;;5062614;28;20399;-60
2023/03/24 00:46:02;;;;;;;7.90;2.70;;;14.50;1.00;;;;;;5060252;28;20461;-60
2023/03/24 00:48:29;;;;;;;6.90;2.40;;;14.70;1.00;;;;;;5061754;28;20400;-59
2023/03/24 00:50:55;;;;;;;7.00;2.67;;;14.60;1.00;;;;;;5059674;28;21781;-59
2023/03/24 00:53:28;;;;;;;9.43;3.00;;;14.60;1.00;;;;;;5057988;28;20416;-59
2023/03/24 00:55:54;;;;;;;7.00;2.60;;;14.60;1.00;;;;;;5059869;28;20437;-59
2023/03/24 00:58:23;;;;;;;8.32;2.40;;;14.70;1.00;;;;;;5061477;28;20804;-60
2023/03/24 01:00:54;;;;;;;7.68;2.40;;;14.60;1.00;;;;;;5060402;28;20401;-62
2023/03/24 01:03:26;;;;;;;7.10;2.70;;;14.50;1.00;;;;;;5062153;28;20516;-59
2023/03/24 01:05:56;;;;;;;7.00;2.33;;;14.40;1.00;;;;;;5060698;28;20441;-59
2023/03/24 01:08:24;;;;;;;6.57;2.40;;;14.50;1.00;;;;;;5057964;28;20482;-59
2023/03/24 01:10:52;;;;;;;7.78;2.40;;;14.60;1.00;;;;;;5061108;28;20431;-60
2023/03/24 01:13:23;;;;;;;8.73;2.50;;;14.50;1.00;;;;;;5061908;28;20429;-59
2023/03/24 01:15:50;;;;;;;7.43;2.50;;;14.40;1.00;;;;;;5060414;28;20501;-62
2023/03/24 01:18:16;;;;;;;6.88;2.50;;;14.40;1.00;;;;;;5060480;28;20445;-59
2023/03/24 01:20:44;;;;;;;6.47;2.10;;;14.40;1.00;;;;;;5059485;28;20876;-59
2023/03/24 01:23:13;;;;;;;6.10;2.20;;;14.40;1.00;;;;;;5057966;28;20397;-60
2023/03/24 01:25:41;;;;;;;6.68;2.35;;;14.40;1.00;;;;;;5060630;28;20866;-59
2023/03/24 01:28:07;;;;;;;6.40;2.00;;;14.30;1.00;;;;;;5060290;28;20405;-59
2023/03/24 01:30:32;;;;;;;7.47;2.00;;;14.40;99.90;;;;;;5060277;28;20746;-59
2023/03/24 01:32:58;;;;;;;7.40;2.10;;;14.50;99.90;;;;;;5061062;28;20469;-59
2023/03/24 01:35:25;;;;;;;7.60;2.20;;;14.50;99.90;;;;;;5060495;28;20472;-59
2023/03/24 01:37:52;;;;;;;8.13;2.70;;;14.50;99.90;;;;;;5059825;28;20402;-59
2023/03/24 01:40:21;;;;;;;5.85;1.63;;;14.60;99.90;;;;;;5043787;28;20408;-59
2023/03/24 01:42:47;;;;;;;6.35;2.20;;;14.60;99.90;;;;;;5060568;28;20409;-62
2023/03/24 01:45:51;;;;;;;6.40;1.70;;;14.70;99.90;;;;;;5060005;28;20383;-59
2023/03/24 01:48:39;;;;;;;7.93;2.70;;;14.70;99.90;;;;;;5048636;28;20745;-59
2023/03/24 01:51:07;;;;;;;7.18;2.30;;;14.80;99.90;;;;;;5060772;28;20395;-59
2023/03/24 01:53:43;;;;;;;6.40;1.90;;;14.90;99.90;;;;;;5061828;28;20381;-59
2023/03/24 01:56:10;;;;;;;6.77;2.00;;;14.90;99.90;;;;;;5058553;28;20384;-60
2023/03/24 01:58:40;;;;;;;6.60;2.00;;;14.90;99.90;;;;;;5059669;28;20429;-60
2023/03/24 02:01:06;;;;;;;6.95;2.15;;;15.00;99.90;;;;;;5059609;28;20518;-60
2023/03/24 02:03:37;;;;;;;6.40;2.22;;;15.00;99.90;;;;;;5060258;28;20380;-59
2023/03/24 02:06:03;;;;;;;8.55;2.50;;;15.10;99.90;;;;;;5060706;28;20372;-60
2023/03/24 02:08:41;;;;;;;9.98;2.28;;;15.10;99.90;;;;;;5061016;28;20415;-60
2023/03/24 02:11:07;;;;;;;6.97;2.10;;;15.10;99.90;;;;;;5058763;28;20385;-59
2023/03/24 02:13:33;;;;;;;5.40;1.80;;;15.10;99.90;;;;;;5042859;28;20753;-59
2023/03/24 02:16:37;;;;;;;6.15;2.10;;;15.10;99.90;;;;;;5060313;28;20384;-59
2023/03/24 02:19:36;;;;;;;6.45;2.03;;;15.10;99.90;;;;;;5055720;28;20415;-59
2023/03/24 02:22:14;;;;;;;7.20;2.20;;;15.20;99.90;;;;;;5056996;28;20443;-60
2023/03/24 02:25:08;;;;;;;6.45;1.80;;;15.20;99.90;;;;;;5060962;28;20503;-59
2023/03/24 02:28:00;;;;;;;6.63;2.20;;;15.20;99.90;;;;;;5060331;28;20438;-62
2023/03/24 02:30:44;;;;;;;7.30;2.13;;;15.20;99.90;;;;;;5058985;28;20448;-60
2023/03/24 02:33:40;;;;;;;6.15;2.00;;;15.20;99.90;;;;;;5057514;28;20389;-59
2023/03/24 02:36:08;;;;;;;6.75;2.08;;;15.10;99.90;;;;;;5056084;28;20397;-59
2023/03/24 02:38:44;;;;;;;6.88;1.85;;;15.20;99.90;;;;;;5060793;28;20405;-59
2023/03/24 02:41:31;;;;;;;5.60;2.00;;;15.20;99.90;;;;;;5057926;28;20478;-59
2023/03/24 02:44:04;;;;;;;6.30;2.00;;;15.20;99.90;;;;;;5059493;28;20403;-59
2023/03/24 02:46:43;;;;;;;6.60;2.05;;;15.10;99.90;;;;;;5059806;28;20473;-61
2023/03/24 02:49:20;;;;;;;6.57;1.80;;;15.10;99.90;;;;;;5057553;28;21001;-60
2023/03/24 02:52:12;;;;;;;5.40;1.70;;;15.10;99.90;;;;;;5057330;28;20389;-59
2023/03/24 02:54:43;;;;;;;5.82;1.50;;;15.00;99.90;;;;;;5060703;28;20414;-59
2023/03/24 02:57:50;;;;;;;6.20;1.90;;;15.00;99.90;;;;;;5058559;28;20484;-59
2023/03/24 03:00:32;;;;;;;6.97;2.03;;;15.00;99.90;;;;;;4998172;28;20445;-59
2023/03/24 03:03:26;;;;;;;8.40;2.30;;;15.00;99.90;;;;;;5056234;28;20929;-59
2023/03/24 03:05:59;;;;;;;8.20;2.15;;;15.00;99.90;;;;;;5057740;28;20422;-62
2023/03/24 03:08:31;;;;;;;5.87;1.97;;;15.10;99.90;;;;;;5057473;28;20419;-59
2023/03/24 03:10:58;;;;;;;6.20;2.10;;;15.20;99.90;;;;;;5058984;28;20920;-60
2023/03/24 03:13:36;;;;;;;7.50;2.30;;;15.10;99.90;;;;;;5058334;28;20402;-60
2023/03/24 03:16:17;;;;;;;6.95;1.65;;;15.30;99.90;;;;;;5054888;28;20842;-59
2023/03/24 03:18:56;;;;;;;6.20;2.08;;;15.30;99.90;;;;;;5055786;28;20409;-59
2023/03/24 03:21:30;;;;;;;7.40;2.00;;;15.20;99.90;;;;;;5055047;28;20396;-59
2023/03/24 03:24:01;;;;;;;6.07;1.98;;;15.20;99.90;;;;;;5059302;28;20463;-59
2023/03/24 03:26:31;;;;;;;5.75;2.03;;;15.20;99.90;;;;;;5057044;28;20495;-59
2023/03/24 03:29:03;;;;;;;5.70;1.80;;;15.30;99.90;;;;;;5057017;28;20524;-61
2023/03/24 03:31:41;;;;;;;5.90;1.80;;;15.30;99.90;;;;;;5059325;28;20399;-59
2023/03/24 03:34:36;;;;;;;6.75;1.90;;;15.30;99.90;;;;;;5058469;28;20388;-59
2023/03/24 03:37:13;;;;;;;7.30;2.30;;;15.40;99.90;;;;;;5055017;28;20382;-59
2023/03/24 03:39:51;;;;;;;8.25;2.30;;;15.40;99.90;;;;;;5057887;28;20444;-59
2023/03/24 03:42:17;;;;;;;6.40;2.22;;;15.40;99.90;;;;;;5057384;28;20398;-60
2023/03/24 03:44:43;;;;;;;7.20;2.10;;;15.30;99.90;;;;;;5059796;28;20376;-59
2023/03/24 03:47:09;;;;;;;6.20;2.10;;;15.10;99.90;;;;;;5058896;28;20385;-59
2023/03/24 03:49:35;;;;;;;6.47;2.20;;;14.90;99.90;;;;;;5062085;28;20387;-58
2023/03/24 03:52:03;;;;;;;7.30;2.10;;;14.90;99.90;;;;;;5063608;28;20411;-59
2023/03/24 03:54:30;;;;;;;7.00;1.98;;;14.80;99.90;;;;;;5062892;28;20797;-59
2023/03/24 03:56:57;;;;;;;5.65;1.70;;;13.70;99.90;;;;;;5061658;28;20881;-59
2023/03/24 03:59:36;;;;;;;6.30;1.90;;;14.80;99.90;;;;;;5063809;28;20415;-59
2023/03/24 04:02:29;;;;;;;7.53;2.50;;;14.20;99.90;;;;;;5037142;28;20880;-59
2023/03/24 04:05:13;;;;;;;6.28;2.08;;;14.90;99.90;;;;;;5061849;28;20855;-60
2023/03/24 04:08:07;;;;;;;7.60;2.25;;;15.00;99.90;;;;;;5063826;28;20380;-59
2023/03/24 04:10:45;;;;;;;6.10;2.20;;;15.00;99.90;;;;;;5063121;28;20403;-59
2023/03/24 04:13:28;;;;;;;6.82;2.10;;;15.10;99.90;;;;;;5060248;28;20970;-59
2023/03/24 04:16:20;;;;;;;6.40;1.92;;;15.00;99.90;;;;;;5059087;28;20390;-60
2023/03/24 04:19:18;;;;;;;7.00;1.90;;;15.00;99.90;;;;;;5059244;28;20409;-59
2023/03/24 04:21:57;;;;;;;6.05;1.80;;;15.00;99.90;;;;;;5063307;28;20377;-59
2023/03/24 04:24:41;;;;;;;6.90;2.60;;;14.90;99.90;;;;;;5063431;28;20430;-59
2023/03/24 04:27:25;;;;;;;8.93;2.40;;;15.00;99.90;;;;;;5059541;28;20388;-59
2023/03/24 04:30:09;;;;;;;7.90;2.70;;;15.00;99.90;;;;;;5061047;28;20507;-62
2023/03/24 04:32:41;;;;;;;7.15;2.30;;;15.00;99.90;;;;;;5061977;28;20400;-59
2023/03/24 04:35:25;;;;;;;7.18;2.00;;;15.00;99.90;;;;;;5059179;28;20955;-60
2023/03/24 04:37:53;;;;;;;6.32;1.90;;;15.10;99.90;;;;;;5060364;28;20523;-62
2023/03/24 04:40:21;;;;;;;6.63;2.00;;;15.10;99.90;;;;;;5060982;28;20405;-60
2023/03/24 04:42:51;;;;;;;7.20;2.60;;;15.10;99.90;;;;;;5062456;28;20829;-59
2023/03/24 04:45:18;;;;;;;7.00;2.00;;;15.20;99.90;;;;;;5061182;28;20411;-60
2023/03/24 04:47:52;;;;;;;6.43;2.00;;;15.20;99.90;;;;;;5057468;28;20688;-59
2023/03/24 04:50:41;;;;;;;9.20;2.50;;;15.20;99.90;;;;;;5061272;28;20403;-60
2023/03/24 04:53:09;;;;;;;7.00;2.10;;;15.20;99.90;;;;;;5058869;28;20451;-59
2023/03/24 04:56:27;;;;;;;6.72;2.20;;;15.10;99.90;;;;;;5061647;28;20434;-60
2023/03/24 04:58:53;;;;;;;7.83;2.57;;;15.20;99.90;;;;;;5036207;28;20430;-62
2023/03/24 05:01:21;;;;;;;6.10;2.30;;;15.20;99.90;;;;;;5061962;28;20396;-58
2023/03/24 05:03:48;;;;;;;8.27;2.40;;;15.30;99.90;;;;;;5060203;28;20375;-59
2023/03/24 05:06:15;;;;;;;6.95;2.40;;;15.10;99.90;;;;;;5061590;28;20560;-58
2023/03/24 05:08:41;;;;;;;8.10;2.58;;;15.10;99.90;;;;;;5060534;28;20389;-59
2023/03/24 05:11:07;;;;;;;6.05;2.20;;;15.00;99.90;;;;;;5060900;28;20425;-58
2023/03/24 05:13:33;;;;;;;6.78;2.67;;;15.00;99.90;;;;;;5061437;28;20469;-60
2023/03/24 05:15:58;;;;;;;7.20;2.20;;;14.90;99.90;;;;;;5061018;28;20437;-59
2023/03/24 05:18:24;;;;;;;6.43;2.10;;;14.60;99.90;;;;;;5051801;28;20813;-60
2023/03/24 05:20:50;;;;;;;6.10;2.20;;;14.50;99.90;;;;;;5031830;28;20415;-61
2023/03/24 05:23:16;;;;;;;6.70;2.40;;;14.40;99.90;;;;;;5051768;28;20382;-61
2023/03/24 05:25:41;;;;;;;7.10;2.00;;;14.40;99.90;;;;;;5052120;28;20439;-59
2023/03/24 05:28:07;;;;;;;6.30;2.00;;;14.30;1.00;;;;;;5061384;28;20771;-58
2023/03/24 05:30:33;;;;;;;8.63;2.20;;;14.10;1.00;;;;;;5071726;28;20399;-59
2023/03/24 05:32:59;;;;;;;6.80;2.33;;;14.10;1.00;;;;;;5058411;28;20415;-59
2023/03/24 05:35:25;;;;;;;6.07;2.00;;;14.10;1.00;;;;;;5061175;28;20394;-60
2023/03/24 05:37:50;;;;;;;6.00;1.95;;;14.20;1.00;;;;;;5044058;28;20435;-62
2023/03/24 05:40:16;;;;;;;8.38;2.30;;;14.20;29.80;;;;;;5045696;28;20892;-60
2023/03/24 05:42:42;;;;;;;8.85;3.30;;;14.20;99.90;;;;;;5047799;28;20418;-60
2023/03/24 05:45:09;;;;;;;9.95;2.42;;;14.20;99.90;;;;;;5039279;28;20427;-60
2023/03/24 05:47:35;;;;;;;6.45;2.42;;;14.10;1.00;;;;;;5054159;28;20387;-60
2023/03/24 05:50:00;;;;;;;8.67;3.20;;;14.10;1.00;;;;;;5065105;28;20976;-61
2023/03/24 05:52:26;;;;;;;7.18;2.78;;;14.10;42.50;;;;;;5058057;28;20388;-60
2023/03/24 05:54:51;;;;;;;6.32;2.35;;;14.10;99.90;;;;;;5045813;28;20912;-62
2023/03/24 05:57:18;;;;;;;7.80;2.80;;;14.10;99.90;;;;;;5031879;28;20991;-60
2023/03/24 05:59:44;;;;;;;7.78;2.70;;;14.00;1.00;;;;;;5049596;28;20466;-59
2023/03/24 06:02:10;;;;;;;9.30;2.60;;;13.90;99.90;;;;;;5049822;28;20422;-60
2023/03/24 06:04:36;;;;;;;7.45;2.50;;;13.90;1.00;;;;;;5047525;28;20442;-60
2023/03/24 06:07:03;;;;;;;7.18;2.80;;;13.80;1.00;;;;;;5037831;28;20414;-61
2023/03/24 06:09:31;;;;;;;6.80;2.88;;;13.80;1.00;;;;;;5034115;28;20515;-60
2023/03/24 06:12:01;;;;;;;7.07;2.80;;;13.80;99.90;;;;;;5050258;28;20427;-60
2023/03/24 06:14:28;;;;;;;8.13;2.70;;;13.70;1.00;;;;;;5063005;28;20393;-61
2023/03/24 06:16:58;;;;;;;9.25;2.78;;;13.60;1.00;;;;;;5043150;28;20409;-65
2023/03/24 06:19:24;;;;;;;7.32;2.80;;;13.80;1.00;;;;;;5043629;28;20426;-59
2023/03/24 06:21:50;;;;;;;7.00;2.80;;;13.80;99.90;;;;;;5040645;28;20438;-59
2023/03/24 06:24:16;;;;;;;7.77;2.90;;;13.70;99.90;;;;;;5038267;28;20405;-59
2023/03/24 06:26:43;;;;;;;8.55;2.75;;;13.70;1.00;;;;;;5048749;28;20412;-59
2023/03/24 06:29:09;;;;;;;6.47;3.13;;;13.70;46.10;;;;;;5049131;28;20405;-60
2023/03/24 06:31:36;;;;;;;8.48;3.30;;;13.60;99.90;;;;;;5050283;28;20397;-59
2023/03/24 06:34:03;;;;;;;7.40;3.15;;;13.60;1.00;;;;;;5049722;28;20385;-59
2023/03/24 06:36:29;;;;;;;7.75;3.00;;;13.60;1.00;;;;;;5050856;28;20393;-59
2023/03/24 06:38:55;;;;;;;7.93;2.70;;;13.70;99.90;;;;;;5062237;28;20419;-64
2023/03/24 06:41:21;;;;;;;10.18;3.17;;;13.70;99.90;;;;;;5049865;28;20393;-60
2023/03/24 06:43:47;;;;;;;7.10;2.70;;;13.70;99.90;;;;;;5053447;28;20401;-60
2023/03/24 06:46:13;;;;;;;7.50;2.60;;;13.80;1.00;;;;;;5031501;28;20373;-59
2023/03/24 06:48:38;;;;;;;8.10;3.05;;;15.20;99.90;;;;;;5050134;28;20373;-59
2023/03/24 06:51:05;;;;;;;8.50;3.00;;;13.80;99.90;;;;;;5049410;28;20409;-60
2023/03/24 06:53:30;;;;;;;7.00;2.80;;;13.80;99.90;;;;;;5049870;28;20435;-59
2023/03/24 06:55:56;;;;;;;8.85;3.05;;;13.80;99.90;;;;;;5049260;28;20835;-60
2023/03/24 06:58:22;;;;;;;7.07;2.60;;;13.90;99.90;;;;;;5050148;28;20425;-61
2023/03/24 07:00:47;;;;;;;8.10;2.50;;;13.90;99.90;;;;;;5049965;28;20500;-59
2023/03/24 07:03:15;;;;;;;8.40;3.10;;;14.00;1.00;;;;;;5048059;28;20385;-60
2023/03/24 07:05:42;;;;;;;6.45;2.60;;;13.90;99.90;;;;;;5041993;28;20411;-61
2023/03/24 07:08:08;;;;;;;7.38;2.45;;;14.00;1.00;;;;;;5049798;28;20849;-60
2023/03/24 07:10:35;;;;;;;7.82;2.80;;;14.10;1.00;;;;;;5049735;28;20402;-59
2023/03/24 07:13:02;;;;;;;6.85;2.20;;;14.00;1.00;;;;;;5049107;28;20381;-60
2023/03/24 07:15:28;;;;;;;6.72;2.30;;;14.00;99.90;;;;;;5049897;28;20451;-60
2023/03/24 07:17:54;;;;;;;6.70;2.40;;;13.90;99.90;;;;;;5049409;28;20451;-63
2023/03/24 07:20:20;;;;;;;8.23;2.60;;;13.90;99.90;;;;;;5048859;28;20409;-60
2023/03/24 07:22:46;;;;;;;7.10;2.80;;;13.90;1.00;;;;;;5049328;28;20390;-60
2023/03/24 07:25:13;;;;;;;7.15;2.60;;;13.90;99.90;;;;;;5048772;28;20380;-61
2023/03/24 07:27:39;;;;;;;5.90;2.15;;;13.90;1.00;;;;;;5049401;28;20389;-61
2023/03/24 07:30:06;;;;;;;6.88;2.70;;;13.90;1.00;;;;;;5049057;28;20460;-59
2023/03/24 07:32:38;;;;;;;6.40;2.30;;;13.90;1.00;;;;;;5049599;28;20377;-59
2023/03/24 07:35:05;;;;;;;7.47;2.90;;;13.90;1.00;;;;;;5048645;28;20831;-61
2023/03/24 07:37:31;;;;;;;6.25;2.63;;;13.80;99.90;;;;;;5049656;28;20472;-59
2023/03/24 07:39:57;;;;;;;7.78;2.70;;;13.80;99.90;;;;;;5048531;28;20644;-64
2023/03/24 07:42:23;;;;;;;7.50;2.53;;;13.80;99.90;;;;;;5049365;28;20385;-59
2023/03/24 07:44:49;;;;;;;6.53;2.50;;;13.80;1.00;;;;;;5049580;28;20382;-60
2023/03/24 07:47:15;;;;;;;8.00;3.00;;;13.80;1.00;;;;;;5048708;28;20884;-60
2023/03/24 07:49:40;;;;;;;6.45;2.22;;;13.70;1.00;;;;;;5049341;28;20381;-60
2023/03/24 07:52:06;;;;;;;7.78;2.42;;;13.60;1.00;;;;;;5048370;28;20878;-60
2023/03/24 07:54:33;;;;;;;8.00;2.70;;;13.50;99.90;;;;;;5049388;28;20378;-59
2023/03/24 07:56:59;;;;;;;6.70;2.75;;;13.60;99.90;;;;;;5048325;28;20485;-60
2023/03/24 07:59:25;;;;;;;8.23;2.63;;;13.60;99.90;;;;;;5049429;28;20413;-60
2023/03/24 08:01:52;;;;;;;6.43;2.53;;;13.60;99.90;;;;;;5049329;28;20385;-60
2023/03/24 08:04:17;;;;;;;8.90;2.50;;;13.60;99.90;;;;;;5048742;28;20426;-60
2023/03/24 08:06:43;;;;;;;8.50;3.23;;;13.60;99.90;;;;;;5048614;28;20388;-60
2023/03/24 08:09:10;;;;;;;7.20;2.70;;;13.50;99.90;;;;;;5048383;28;20431;-60
2023/03/24 08:11:36;;;;;;;7.43;2.60;;;13.60;99.90;;;;;;5049075;28;20385;-60
2023/03/24 08:14:02;;;;;;;7.78;2.30;;;13.70;99.90;;;;;;5048412;28;20720;-60
2023/03/24 08:16:28;;;;;;;6.07;2.25;;;13.70;99.90;;;;;;5048967;28;20415;-60
2023/03/24 08:18:57;;;;;;;6.40;2.50;;;13.70;99.90;;;;;;5048931;28;20401;-64
2023/03/24 08:21:23;;;;;;;6.00;2.20;;;13.70;99.90;;;;;;5049090;28;20750;-60
2023/03/24 08:23:49;;;;;;;9.15;2.10;;;13.70;99.90;;;;;;5048947;28;20430;-61
2023/03/24 08:26:15;;;;;;;5.90;2.00;;;13.70;99.90;;;;;;5048372;28;20457;-61
2023/03/24 08:28:41;;;;;;;6.60;2.30;;;13.70;99.90;;;;;;5048850;28;20512;-61
2023/03/24 08:31:07;;;;;;;6.83;2.27;;;13.70;99.90;;;;;;5047859;28;20386;-61
2023/03/24 08:33:33;;;;;;;5.47;2.10;;;13.70;99.90;;;;;;5049149;28;20390;-61
2023/03/24 08:35:59;;;;;;;6.38;1.90;;;13.70;99.90;;;;;;5051380;28;20858;-61
2023/03/24 08:38:29;;;;;;;9.85;2.25;;;13.60;99.90;;;;;;5052449;28;20456;-60
2023/03/24 08:41:05;;;;;;;5.55;2.00;;;13.70;99.90;;;;;;5051966;28;20952;-64
2023/03/24 08:43:32;;;;;;;5.50;1.80;;;13.70;99.90;;;;;;5052648;28;20389;-61
2023/03/24 08:45:59;;;;;;;7.90;2.30;;;13.70;99.90;;;;;;5034024;28;20476;-62
2023/03/24 08:48:27;;;;;;;5.45;1.70;;;13.80;99.90;;;;;;5052371;28;20385;-61
2023/03/24 08:50:53;;;;;;;7.55;2.40;;;14.00;99.90;;;;;;5052565;28;20381;-62
2023/03/24 08:53:19;;;;;;;6.30;2.30;;;14.10;1.00;;;;;;5052326;28;20376;-61
2023/03/24 08:55:45;;;;;;;5.65;2.00;;;14.20;99.90;;;;;;5052413;28;20404;-61
2023/03/24 08:58:17;;;;;;;6.60;2.17;;;14.20;97.80;;;;;;5051505;28;20409;-62
2023/03/24 09:00:44;;;;;;;6.72;2.03;;;14.30;1.00;;;;;;5051948;28;20878;-61
2023/03/24 09:03:13;;;;;;;6.20;2.20;;;14.40;1.00;;;;;;5051195;28;20385;-61
2023/03/24 09:05:39;;;;;;;7.67;2.27;;;14.30;1.00;;;;;;5051800;28;20472;-62
2023/03/24 09:08:05;;;;;;;5.47;1.80;;;14.40;1.00;;;;;;5051109;28;20384;-61
2023/03/24 09:10:31;;;;;;;6.17;2.13;;;14.40;1.00;;;;;;5051734;28;20401;-61
2023/03/24 09:12:57;;;;;;;8.35;1.70;;;14.40;1.00;;;;;;5051197;28;20423;-65
2023/03/24 09:15:22;;;;;;;6.03;2.10;;;14.50;1.00;;;;;;5051620;28;20493;-62
2023/03/24 09:17:48;;;;;;;6.50;1.97;;;14.40;1.00;;;;;;5051538;28;20392;-62
2023/03/24 09:20:14;;;;;;;6.00;1.70;;;14.50;1.00;;;;;;5051091;28;20617;-61
2023/03/24 09:22:41;;;;;;;6.10;1.95;;;14.40;99.90;;;;;;5051869;28;20394;-61
2023/03/24 09:25:09;;;;;;;5.43;1.70;;;14.30;1.00;;;;;;5051192;28;20377;-61
2023/03/24 09:27:34;;;;;;;5.90;1.90;;;14.10;99.90;;;;;;5051693;28;20405;-61
2023/03/24 09:30:01;;;;;;;6.30;2.10;;;14.10;1.00;;;;;;5051225;28;20420;-61
2023/03/24 09:32:26;;;;;;;5.75;2.03;;;14.20;1.00;;;;;;5051824;28;20386;-61
2023/03/24 09:34:52;;;;;;;5.63;1.67;;;14.30;1.00;;;;;;5051713;28;20389;-61
2023/03/24 09:37:18;;;;;;;5.70;1.80;;;14.30;99.90;;;;;;5051060;28;20484;-62
2023/03/24 09:39:43;;;;;;;6.10;1.85;;;14.40;99.90;;;;;;5051332;28;20487;-62
2023/03/24 09:42:19;;;;;;;6.50;1.80;;;14.50;99.90;;;;;;5050381;28;20401;-61
2023/03/24 09:44:47;;;;;;;5.18;1.55;;;14.60;1.00;;;;;;5051655;28;20380;-62
2023/03/24 09:47:27;;;;;;;6.07;1.95;;;14.70;1.00;;;;;;5050667;28;20390;-62
2023/03/24 09:49:56;;;;;;;8.13;1.63;;;14.90;1.00;;;;;;5051413;28;20393;-62
2023/03/24 09:52:38;;;;;;;5.22;1.35;;;14.90;99.90;;;;;;5050623;28;20450;-62
2023/03/24 09:55:03;;;;;;;6.00;1.63;;;14.90;1.00;;;;;;5050601;28;20460;-62
2023/03/24 09:57:44;;;;;;;5.50;1.75;;;15.20;99.90;;;;;;5033222;28;20480;-62
2023/03/24 10:00:27;;;;;;;4.90;1.45;;;15.30;99.90;;;;;;5050423;28;20440;-61
2023/03/24 10:02:57;;;;;;;5.35;1.50;;;15.60;1.00;;;;;;5051003;28;20390;-61
2023/03/24 10:05:32;;;;;;;4.70;1.43;;;15.90;1.00;;;;;;5051024;28;20531;-61
2023/03/24 10:08:48;;;;;;;6.00;1.77;;;16.20;99.90;;;;;;5050346;28;20388;-64
2023/03/24 10:11:36;;;;;;;5.75;1.70;;;16.60;1.00;;;;;;5046807;28;20405;-61
2023/03/24 10:14:48;;;;;;;5.32;1.42;;;17.10;1.00;;;;;;5050268;28;20390;-60
2023/03/24 10:17:28;;;;;;;5.43;1.50;;;16.90;99.90;;;;;;5041269;28;20399;-61
2023/03/24 10:20:10;;;;;;;5.50;1.57;;;17.10;99.90;;;;;;5050803;28;20409;-61
2023/03/24 10:23:07;;;;;;;5.30;1.50;;;17.20;99.90;;;;;;5050888;28;20400;-60
2023/03/24 10:25:48;;;;;;;5.70;1.50;;;16.80;99.90;;;;;;5050677;28;20476;-60
2023/03/24 10:28:44;;;;;;;6.30;1.60;;;16.50;99.90;;;;;;5049353;28;20451;-60
2023/03/24 10:31:12;;;;;;;5.93;1.70;;;16.30;99.90;;;;;;5049961;28;20395;-61
2023/03/24 10:33:42;;;;;;;7.50;1.73;;;16.40;99.90;;;;;;5050656;28;20377;-61
2023/03/24 10:36:14;;;;;;;5.90;1.90;;;16.50;99.90;;;;;;5050007;28;20894;-61
2023/03/24 10:38:40;;;;;;;6.47;1.92;;;16.30;99.90;;;;;;5031914;28;20890;-60
2023/03/24 10:41:18;;;;;;;6.28;1.73;;;16.20;99.90;;;;;;5049727;28;20388;-61
2023/03/24 10:43:46;;;;;;;5.10;1.40;;;16.20;99.90;;;;;;5050295;28;20438;-61
2023/03/24 10:46:18;;;;;;;4.93;1.33;;;16.10;99.90;;;;;;5049772;28;20386;-61
2023/03/24 10:48:46;;;;;;;6.00;1.65;;;16.10;99.90;;;;;;5050089;28;20843;-61
2023/03/24 10:51:25;;;;;;;5.10;1.30;;;16.10;99.90;;;;;;5049470;28;20397;-60
2023/03/24 10:54:08;;;;;;;5.35;1.50;;;16.20;99.90;;;;;;5049902;28;20874;-61
2023/03/24 10:56:40;;;;;;;5.55;1.30;;;16.20;99.90;;;;;;5049367;28;20392;-61
2023/03/24 10:59:49;;;;;;;6.78;1.40;;;16.10;99.90;;;;;;5048810;28;20420;-61
2023/03/24 11:02:22;;;;;;;4.90;1.20;;;16.00;99.90;;;;;;5015688;28;20879;-60
2023/03/24 11:04:57;;;;;;;6.30;1.40;;;16.20;99.90;;;;;;5049770;28;20388;-60
2023/03/24 11:07:37;;;;;;;4.90;1.40;;;15.50;93.00;;;;;;5049517;28;20378;-60
2023/03/24 11:10:09;;;;;;;5.00;1.30;;;16.20;96.20;;;;;;5048957;28;20438;-60
2023/03/24 11:12:40;;;;;;;6.32;1.30;;;16.70;99.90;;;;;;5049900;28;20409;-61
2023/03/24 11:15:18;;;;;;;4.70;1.23;;;17.40;66.80;;;;;;5049123;28;20855;-61
2023/03/24 11:17:45;;;;;;;5.45;1.20;;;17.80;1.00;;;;;;5049937;28;20402;-61
2023/03/24 11:20:28;;;;;;;5.32;1.08;;;17.60;1.00;;;;;;5049202;28;20467;-61
2023/03/24 11:23:10;;;;;;;4.80;1.10;;;17.40;1.00;;;;;;5049716;28;20391;-60
2023/03/24 11:25:39;;;;;;;4.60;1.10;;;17.10;1.00;;;;;;5049674;28;20420;-61
2023/03/24 11:28:16;;;;;;;5.20;1.10;;;16.90;1.00;;;;;;5048441;28;20394;-61
2023/03/24 11:30:51;;;;;;;5.20;0.80;;;16.90;1.00;;;;;;5049970;28;20390;-60
2023/03/24 11:33:32;;;;;;;4.90;1.10;;;17.00;1.00;;;;;;5048981;28;20386;-60
2023/03/24 11:35:59;;;;;;;4.70;1.02;;;17.10;1.00;;;;;;5049189;28;20453;-63
2023/03/24 11:38:31;;;;;;;5.50;1.20;;;17.10;1.00;;;;;;5049371;28;20394;-61
2023/03/24 11:41:00;;;;;;;5.30;1.10;;;17.10;1.00;;;;;;5048176;28;20401;-63
2023/03/24 11:43:27;;;;;;;5.40;1.23;;;18.00;1.00;;;;;;5049536;28;20385;-60
2023/03/24 11:46:00;;;;;;;6.30;1.20;;;16.50;1.00;;;;;;5049548;28;20873;-60
2023/03/24 11:48:48;;;;;;;6.93;1.30;;;16.30;1.00;;;;;;5049477;28;20377;-60
2023/03/24 11:51:27;;;;;;;4.88;1.10;;;15.90;1.00;;;;;;5048673;28;20515;-60
2023/03/24 11:53:56;;;;;;;5.95;1.10;;;15.80;80.90;;;;;;5049332;28;20377;-61
2023/03/24 11:56:44;;;;;;;4.57;0.80;;;15.90;99.90;;;;;;5049495;28;20385;-61
2023/03/24 11:59:28;;;;;;;5.10;1.10;;;15.80;99.90;;;;;;5048919;28;20450;-60
2023/03/24 12:02:10;;;;;;;4.78;1.10;;;15.80;99.90;;;;;;5049467;28;20486;-61
2023/03/24 12:04:41;;;;;;;5.20;1.10;;;15.90;99.90;;;;;;5048945;28;20750;-61
2023/03/24 12:07:44;;;;;;;4.40;0.75;;;15.80;99.90;;;;;;5048335;28;20397;-61
2023/03/24 12:10:27;;;;;;;4.90;0.80;;;15.50;1.00;;;;;;5051919;28;20450;-62
2023/03/24 12:13:15;;;;;;;4.63;0.90;;;15.40;99.90;;;;;;5053071;28;20389;-60
2023/03/24 12:15:43;;;;;;;4.47;0.90;;;15.50;99.90;;;;;;5046791;28;20446;-60
2023/03/24 12:18:27;;;;;;;4.60;0.80;;;15.80;99.90;;;;;;5054114;28;20726;-60
2023/03/24 12:21:23;;;;;;;6.10;1.00;;;16.00;99.90;;;;;;5052676;28;20773;-61
2023/03/24 12:24:04;;;;;;;5.00;1.10;;;16.40;99.90;;;;;;5053001;28;20835;-60
2023/03/24 12:26:33;;;;;;;4.70;1.10;;;16.80;99.90;;;;;;5052928;28;20407;-60
2023/03/24 12:29:31;;;;;;;5.63;1.50;;;16.70;26.50;;;;;;5051672;28;20478;-63
2023/03/24 12:32:32;;;;;;;4.60;1.00;;;16.40;31.60;;;;;;5052983;28;20404;-61
2023/03/24 12:35:05;;;;;;;5.20;1.10;;;16.40;9.10;;;;;;5052229;28;20746;-63
2023/03/24 12:37:41;;;;;;;4.90;1.35;;;16.10;3.70;;;;;;5053065;28;20385;-60
2023/03/24 12:40:20;;;;;;;5.07;1.05;;;15.80;1.00;;;;;;5051865;28;20438;-60
2023/03/24 12:42:45;;;;;;;4.93;0.85;;;15.80;1.00;;;;;;5034812;28;20912;-60
2023/03/24 12:45:14;;;;;;;4.60;0.80;;;15.80;25.90;;;;;;5051837;28;20431;-60
2023/03/24 12:48:04;;;;;;;5.00;1.20;;;15.70;1.00;;;;;;5052500;28;20846;-61
2023/03/24 12:51:11;;;;;;;4.72;0.90;;;15.70;18.10;;;;;;5052541;28;20417;-60
2023/03/24 12:54:03;;;;;;;4.47;0.70;;;15.80;29.20;;;;;;5007820;28;20437;-60
2023/03/24 12:56:40;;;;;;;4.50;0.80;;;15.80;1.00;;;;;;5052420;28;20410;-61
2023/03/24 12:59:13;;;;;;;4.30;0.80;;;16.00;1.00;;;;;;5051391;28;20424;-61
2023/03/24 13:01:43;;;;;;;4.10;0.50;;;16.10;1.00;;;;;;5052614;28;20401;-60
2023/03/24 13:04:12;;;;;;;4.22;0.40;;;15.70;1.00;;;;;;5051356;28;20453;-60
2023/03/24 13:06:43;;;;;;;4.30;0.50;;;15.50;1.00;;;;;;5052091;28;20392;-60
2023/03/24 13:09:28;;;;;;;4.70;0.60;;;15.50;1.00;;;;;;5051336;28;20436;-60
2023/03/24 13:12:00;;;;;;;4.20;0.50;;;15.60;1.00;;;;;;5052194;28;20433;-60
2023/03/24 13:14:37;;;;;;;6.45;0.63;;;14.80;1.00;;;;;;5051764;28;20404;-60
2023/03/24 13:17:11;;;;;;;4.30;0.60;;;14.30;1.00;;;;;;5051327;28;20525;-60
2023/03/24 13:19:38;;;;;;;4.93;0.60;;;14.00;3.80;;;;;;5051728;28;20401;-60